createdAt,value
2022-09-11T00:03:47.381Z,72.15
2022-09-11T00:07:16.289Z,72.31
2022-09-11T00:10:44.461Z,72.23
2022-09-11T00:14:14.343Z,72.28
2022-09-11T00:17:42.200Z,72.17
2022-09-11T00:21:10.382Z,72.15
2022-09-11T00:24:36.980Z,72.17
2022-09-11T00:28:04.353Z,72.04
2022-09-11T00:31:32.725Z,72.26
2022-09-11T00:35:00.609Z,72.37
2022-09-11T00:38:28.572Z,72.39
2022-09-11T00:41:55.504Z,72.56
2022-09-11T00:45:26.419Z,72.57
2022-09-11T00:48:54.904Z,72.55
2022-09-11T00:52:27.406Z,72.46
2022-09-11T00:55:56.830Z,72.64
2022-09-11T00:59:27.272Z,72.67
2022-09-11T01:02:56.548Z,72.69
2022-09-11T01:06:24.450Z,72.73
2022-09-11T01:09:51.915Z,72.62
2022-09-11T01:13:34.666Z,72.69
2022-09-11T01:17:12.934Z,72.58
2022-09-11T01:20:59.636Z,72.49
2022-09-11T01:24:45.671Z,72.57
2022-09-11T01:28:17.071Z,72.59
2022-09-11T01:31:52.704Z,72.63
2022-09-11T01:35:27.510Z,72.56
2022-09-11T01:38:58.721Z,72.41
2022-09-11T01:42:33.918Z,72.44
2022-09-11T01:46:04.790Z,72.34
2022-09-11T01:49:40.822Z,72.41
2022-09-11T01:53:14.362Z,72.42
2022-09-11T01:56:49.582Z,72.55
2022-09-11T02:00:18.987Z,72.57
2022-09-11T02:03:57.016Z,72.59
2022-09-11T02:07:26.939Z,72.73
2022-09-11T02:11:04.209Z,72.75
2022-09-11T02:14:39.068Z,72.71
2022-09-11T02:18:14.727Z,72.75
2022-09-11T02:21:42.020Z,72.70
2022-09-11T02:25:10.303Z,72.67
2022-09-11T02:28:39.199Z,72.59
2022-09-11T02:32:07.328Z,72.67
2022-09-11T02:35:43.800Z,72.59
2022-09-11T02:39:27.701Z,72.61
2022-09-11T02:43:17.125Z,72.56
2022-09-11T02:47:07.643Z,72.54
2022-09-11T02:50:42.581Z,72.47
2022-09-11T02:54:26.076Z,72.41
2022-09-11T02:58:01.477Z,72.42
2022-09-11T03:01:32.115Z,72.40
2022-09-11T03:05:00.406Z,72.40
2022-09-11T03:08:27.294Z,72.46
2022-09-11T03:11:55.531Z,72.51
2022-09-11T03:15:24.030Z,72.47
2022-09-11T03:18:52.084Z,72.49
2022-09-11T03:22:19.093Z,72.57
2022-09-11T03:25:47.378Z,72.67
2022-09-11T03:29:14.681Z,72.56
2022-09-11T03:32:43.594Z,72.69
2022-09-11T03:36:13.197Z,72.55
2022-09-11T03:39:40.178Z,72.63
2022-09-11T03:43:07.156Z,72.70
2022-09-11T03:46:35.359Z,72.55
2022-09-11T03:50:02.901Z,72.69
2022-09-11T03:53:30.348Z,72.74
2022-09-11T03:56:59.282Z,72.67
2022-09-11T04:00:27.720Z,72.52
2022-09-11T04:03:55.132Z,72.49
2022-09-11T04:07:27.508Z,72.47
2022-09-11T04:11:00.098Z,72.39
2022-09-11T04:14:28.330Z,72.47
2022-09-11T04:17:56.970Z,72.35
2022-09-11T04:21:23.814Z,72.54
2022-09-11T04:24:52.200Z,72.64
2022-09-11T04:28:20.012Z,72.67
2022-09-11T04:31:46.914Z,72.60
2022-09-11T04:35:15.074Z,72.65
2022-09-11T04:38:51.168Z,72.61
2022-09-11T04:42:19.096Z,72.76
2022-09-11T04:45:45.921Z,72.92
2022-09-11T04:49:14.989Z,72.96
2022-09-11T04:52:42.564Z,72.94
2022-09-11T04:56:13.941Z,73.03
2022-09-11T04:59:45.221Z,72.89
2022-09-11T05:03:14.010Z,72.72
2022-09-11T05:06:41.182Z,72.83
2022-09-11T05:10:11.555Z,72.91
2022-09-11T05:13:38.759Z,73.01
2022-09-11T05:17:06.689Z,72.87
2022-09-11T05:20:36.333Z,73.01
2022-09-11T05:24:04.691Z,72.78
2022-09-11T05:27:33.453Z,72.86
2022-09-11T05:31:02.739Z,73.02
2022-09-11T05:34:30.250Z,72.92
2022-09-11T05:37:57.817Z,72.97
2022-09-11T05:41:25.320Z,73.05
2022-09-11T05:44:53.315Z,73.16
2022-09-11T05:48:20.116Z,72.95
2022-09-11T05:51:48.446Z,72.87
2022-09-11T05:55:16.833Z,72.80
2022-09-11T05:58:43.824Z,72.83
2022-09-11T06:02:13.426Z,72.66
2022-09-11T06:05:44.393Z,72.76
2022-09-11T06:09:12.154Z,72.79
2022-09-11T06:12:40.419Z,72.80
2022-09-11T06:16:09.287Z,72.68
2022-09-11T06:19:36.080Z,72.71
2022-09-11T06:23:09.021Z,72.64
2022-09-11T06:26:37.840Z,72.76
2022-09-11T06:30:04.879Z,72.81
2022-09-11T06:33:36.977Z,72.92
2022-09-11T06:37:03.827Z,72.95
2022-09-11T06:40:31.735Z,73.03
2022-09-11T06:43:59.653Z,73.00
2022-09-11T06:47:27.994Z,72.72
2022-09-11T06:50:55.648Z,72.93
2022-09-11T06:54:22.610Z,73.00
2022-09-11T06:57:49.919Z,72.88
2022-09-11T07:01:22.827Z,72.68
2022-09-11T07:04:54.929Z,72.63
2022-09-11T07:08:24.966Z,72.65
2022-09-11T07:11:54.357Z,72.55
2022-09-11T07:15:22.395Z,72.54
2022-09-11T07:18:50.606Z,72.66
2022-09-11T07:22:20.119Z,72.58
2022-09-11T07:25:51.167Z,72.64
2022-09-11T07:29:18.809Z,72.55
2022-09-11T07:32:47.445Z,72.56
2022-09-11T07:36:17.012Z,72.56
2022-09-11T07:39:44.266Z,72.39
2022-09-11T07:43:20.062Z,72.42
2022-09-11T07:46:46.454Z,72.44
2022-09-11T07:50:14.684Z,72.49
2022-09-11T07:53:44.925Z,72.76
2022-09-11T07:57:12.339Z,72.62
2022-09-11T08:00:39.548Z,72.54
2022-09-11T08:04:16.028Z,72.74
2022-09-11T08:07:43.397Z,72.83
2022-09-11T08:11:13.956Z,72.72
2022-09-11T08:14:42.690Z,72.86
2022-09-11T08:18:20.687Z,72.69
2022-09-11T08:21:48.102Z,72.82
2022-09-11T08:25:15.453Z,72.91
2022-09-11T08:28:45.161Z,72.85
2022-09-11T08:32:13.778Z,72.84
2022-09-11T08:35:41.398Z,72.83
2022-09-11T08:39:10.032Z,72.70
2022-09-11T08:42:47.795Z,72.47
2022-09-11T08:46:18.422Z,72.37
2022-09-11T08:49:50.661Z,72.33
2022-09-11T08:53:22.272Z,72.45
2022-09-11T08:56:51.479Z,72.58
2022-09-11T09:00:23.367Z,72.54
2022-09-11T09:04:20.168Z,72.41
2022-09-11T09:08:01.641Z,72.53
2022-09-11T09:11:38.688Z,72.44
2022-09-11T09:15:29.565Z,72.41
2022-09-11T09:19:03.608Z,72.29
2022-09-11T09:22:47.381Z,72.15
2022-09-11T09:26:19.064Z,72.14
2022-09-11T09:29:52.277Z,72.03
2022-09-11T09:33:31.011Z,71.94
2022-09-11T09:37:15.523Z,72.07
2022-09-11T09:40:50.136Z,71.69
2022-09-11T09:44:26.471Z,71.24
2022-09-11T09:47:54.086Z,71.41
2022-09-11T09:51:21.448Z,71.10
2022-09-11T09:54:57.262Z,71.06
2022-09-11T09:58:28.154Z,70.89
2022-09-11T10:01:55.710Z,70.38
2022-09-11T10:05:30.060Z,70.17
2022-09-11T10:09:03.264Z,70.28
2022-09-11T10:12:31.781Z,70.21
2022-09-11T10:16:01.707Z,70.26
2022-09-11T10:19:42.444Z,70.19
2022-09-11T10:26:51.123Z,69.06
2022-09-11T10:30:36.342Z,68.85
2022-09-11T10:34:06.264Z,68.12
2022-09-11T10:37:35.023Z,68.10
2022-09-11T10:41:09.922Z,67.93
2022-09-11T10:44:37.290Z,67.93
2022-09-11T10:48:20.018Z,67.57
2022-09-11T10:52:02.605Z,67.15
2022-09-11T10:55:36.156Z,67.03
2022-09-11T10:59:11.784Z,66.82
2022-09-11T11:02:41.995Z,66.82
2022-09-11T11:06:21.286Z,66.28
2022-09-11T11:10:02.483Z,65.85
2022-09-11T11:13:45.611Z,65.66
2022-09-11T11:17:23.040Z,65.85
2022-09-11T11:21:00.631Z,65.52
2022-09-11T11:24:51.404Z,65.56
2022-09-11T11:28:37.421Z,65.56
2022-09-11T11:32:37.091Z,65.47
2022-09-11T11:36:10.152Z,65.47
2022-09-11T11:39:49.216Z,65.56
2022-09-11T11:43:20.203Z,65.41
2022-09-11T11:46:52.406Z,65.25
2022-09-11T11:50:29.854Z,65.55
2022-09-11T11:54:05.929Z,65.07
2022-09-11T11:57:41.893Z,64.86
2022-09-11T12:01:18.666Z,65.15
2022-09-11T12:04:52.537Z,64.86
2022-09-11T12:08:20.374Z,64.35
2022-09-11T12:11:52.536Z,63.90
2022-09-11T12:15:24.266Z,63.56
2022-09-11T12:19:20.044Z,63.57
2022-09-11T12:22:50.604Z,63.26
2022-09-11T12:26:25.002Z,63.22
2022-09-11T12:30:08.846Z,62.85
2022-09-11T12:33:59.449Z,62.34
2022-09-11T12:37:33.227Z,61.72
2022-09-11T12:41:07.507Z,61.55
2022-09-11T12:44:55.884Z,61.36
2022-09-11T12:48:26.964Z,60.76
2022-09-11T12:51:59.753Z,60.40
2022-09-11T12:55:33.911Z,60.16
2022-09-11T12:59:08.177Z,60.15
2022-09-11T13:02:39.822Z,60.37
2022-09-11T13:06:10.513Z,60.10
2022-09-11T13:09:43.486Z,59.50
2022-09-11T13:13:45.143Z,59.45
2022-09-11T13:17:22.660Z,59.38
2022-09-11T13:21:00.956Z,58.86
2022-09-11T13:24:30.507Z,58.42
2022-09-11T13:28:01.605Z,58.26
2022-09-11T13:31:35.862Z,57.84
2022-09-11T13:35:08.217Z,57.77
2022-09-11T13:38:38.810Z,57.22
2022-09-11T13:42:07.731Z,57.08
2022-09-11T13:45:34.982Z,56.95
2022-09-11T13:49:27.315Z,56.18
2022-09-11T13:52:56.313Z,56.13
2022-09-11T13:56:45.894Z,56.14
2022-09-11T14:00:43.052Z,56.29
2022-09-11T14:04:13.118Z,56.00
2022-09-11T14:07:47.962Z,55.80
2022-09-11T14:11:27.869Z,55.55
2022-09-11T14:15:02.025Z,55.56
2022-09-11T14:18:35.034Z,55.61
2022-09-11T14:22:15.554Z,55.60
2022-09-11T14:26:02.984Z,55.60
2022-09-11T14:29:31.888Z,55.51
2022-09-11T14:33:24.868Z,55.61
2022-09-11T14:37:00.355Z,55.72
2022-09-11T14:40:27.365Z,55.62
2022-09-11T14:43:56.889Z,55.63
2022-09-11T14:47:31.789Z,55.68
2022-09-11T14:51:02.417Z,55.51
2022-09-11T14:54:33.408Z,55.52
2022-09-11T14:58:22.297Z,55.41
2022-09-11T15:01:52.600Z,55.10
2022-09-11T15:05:23.263Z,54.90
2022-09-11T15:08:50.303Z,54.87
2022-09-11T15:12:17.917Z,54.68
2022-09-11T15:15:45.573Z,54.50
2022-09-11T15:19:13.071Z,54.46
2022-09-11T15:22:42.035Z,54.56
2022-09-11T15:26:13.257Z,54.57
2022-09-11T15:29:42.928Z,54.42
2022-09-11T15:33:13.681Z,54.17
2022-09-11T15:36:45.812Z,54.41
2022-09-11T15:40:16.377Z,54.37
2022-09-11T15:43:50.850Z,54.14
2022-09-11T15:47:17.674Z,53.98
2022-09-11T15:50:45.163Z,53.84
2022-09-11T15:54:16.204Z,53.88
2022-09-11T16:01:32.508Z,54.04
2022-09-11T16:05:02.740Z,54.04
2022-09-11T16:08:30.543Z,53.98
2022-09-11T16:12:00.461Z,54.06
2022-09-11T16:15:27.899Z,53.90
2022-09-11T16:18:55.708Z,53.90
2022-09-11T16:22:26.125Z,53.86
2022-09-11T16:25:56.056Z,53.90
2022-09-11T16:29:37.809Z,53.77
2022-09-11T16:33:15.240Z,54.05
2022-09-11T16:36:45.072Z,54.15
2022-09-11T16:40:13.675Z,54.40
2022-09-11T16:43:46.236Z,54.40
2022-09-11T16:47:13.709Z,54.30
2022-09-11T16:50:42.204Z,54.34
2022-09-11T16:54:14.346Z,54.34
2022-09-11T16:57:44.751Z,54.42
2022-09-11T17:01:16.272Z,54.35
2022-09-11T17:04:52.065Z,54.42
2022-09-11T17:08:23.968Z,54.48
2022-09-11T17:11:51.991Z,54.51
2022-09-11T17:15:25.185Z,54.49
2022-09-11T17:18:57.147Z,54.55
2022-09-11T17:22:24.332Z,54.55
2022-09-11T17:25:52.402Z,54.55
2022-09-11T17:29:20.251Z,54.61
2022-09-11T17:32:48.229Z,54.63
2022-09-11T17:36:18.094Z,54.81
2022-09-11T17:39:51.320Z,54.93
2022-09-11T17:43:21.482Z,55.07
2022-09-11T17:46:48.267Z,55.05
2022-09-11T17:50:16.506Z,55.22
2022-09-11T17:53:46.670Z,55.38
2022-09-11T17:57:16.354Z,55.44
2022-09-11T18:00:46.073Z,55.55
2022-09-11T18:04:14.968Z,55.56
2022-09-11T18:07:42.079Z,55.81
2022-09-11T18:11:09.918Z,55.88
2022-09-11T18:14:40.329Z,55.95
2022-09-11T18:18:10.347Z,56.10
2022-09-11T18:21:38.485Z,56.38
2022-09-11T18:25:09.744Z,56.37
2022-09-11T18:28:40.936Z,56.53
2022-09-11T18:32:10.135Z,56.47
2022-09-11T18:35:38.685Z,56.73
2022-09-11T18:39:07.201Z,56.80
2022-09-11T18:42:34.460Z,56.91
2022-09-11T18:46:04.901Z,57.06
2022-09-11T18:49:33.919Z,57.22
2022-09-11T18:53:01.058Z,57.50
2022-09-11T18:56:31.529Z,57.62
2022-09-11T19:00:00.173Z,57.63
2022-09-11T19:03:29.027Z,57.67
2022-09-11T19:06:56.712Z,57.72
2022-09-11T19:10:24.075Z,57.78
2022-09-11T19:13:53.423Z,58.01
2022-09-11T19:17:21.739Z,58.09
2022-09-11T19:21:00.434Z,58.12
2022-09-11T19:24:30.523Z,58.19
2022-09-11T19:28:00.179Z,58.33
2022-09-11T19:31:33.000Z,58.38
2022-09-11T19:35:00.677Z,58.45
2022-09-11T19:38:28.736Z,58.76
2022-09-11T19:41:56.236Z,58.82
2022-09-11T19:45:24.319Z,58.77
2022-09-11T19:48:54.469Z,58.85
2022-09-11T19:52:24.511Z,58.88
2022-09-11T19:55:56.647Z,59.08
2022-09-11T19:59:23.994Z,59.34
2022-09-11T20:02:55.019Z,59.48
2022-09-11T20:06:32.498Z,59.52
2022-09-11T20:10:00.459Z,59.71
2022-09-11T20:13:28.243Z,59.93
2022-09-11T20:16:55.417Z,60.00
2022-09-11T20:20:23.275Z,60.07
2022-09-11T20:23:55.708Z,60.05
2022-09-11T20:27:22.812Z,60.24
2022-09-11T20:30:51.630Z,60.46
2022-09-11T20:34:19.849Z,60.33
2022-09-11T20:37:47.827Z,60.51
2022-09-11T20:41:17.604Z,60.76
2022-09-11T20:44:45.625Z,60.90
2022-09-11T20:48:12.314Z,60.81
2022-09-11T20:51:44.662Z,60.92
2022-09-11T20:55:12.823Z,61.26
2022-09-11T20:58:44.443Z,61.13
2022-09-11T21:02:15.041Z,61.54
2022-09-11T21:05:42.738Z,61.65
2022-09-11T21:09:11.434Z,61.72
2022-09-11T21:12:38.341Z,61.90
2022-09-11T21:16:09.167Z,61.96
2022-09-11T21:19:36.684Z,62.22
2022-09-11T21:23:04.722Z,62.08
2022-09-11T21:26:33.406Z,62.21
2022-09-11T21:30:00.459Z,62.13
2022-09-11T21:33:27.708Z,62.32
2022-09-11T21:36:55.580Z,62.13
2022-09-11T21:40:24.096Z,62.17
2022-09-11T21:44:04.133Z,62.32
2022-09-11T21:47:31.822Z,62.33
2022-09-11T21:51:06.585Z,62.43
2022-09-11T21:54:34.959Z,62.49
2022-09-11T21:58:02.604Z,62.60
2022-09-11T22:01:37.164Z,62.82
2022-09-11T22:05:07.966Z,63.02
2022-09-11T22:08:38.910Z,63.13
2022-09-11T22:12:07.214Z,63.05
2022-09-11T22:15:42.197Z,63.11
2022-09-11T22:19:09.801Z,63.37
2022-09-11T22:22:40.363Z,63.18
2022-09-11T22:26:18.112Z,63.43
2022-09-11T22:29:47.118Z,63.37
2022-09-11T22:33:15.016Z,63.46
2022-09-11T22:36:42.694Z,63.37
2022-09-11T22:40:12.260Z,63.47
2022-09-11T22:43:39.729Z,63.40
2022-09-11T22:47:09.813Z,63.57
2022-09-11T22:50:41.148Z,63.52
2022-09-11T22:54:14.248Z,63.57
2022-09-11T22:57:44.291Z,63.62
2022-09-11T23:01:15.494Z,63.93
2022-09-11T23:05:04.758Z,63.82
2022-09-11T23:08:38.410Z,64.02
2022-09-11T23:12:06.864Z,64.14
2022-09-11T23:15:34.596Z,64.27
2022-09-11T23:19:05.424Z,64.56
2022-09-11T23:22:40.077Z,64.44
2022-09-11T23:26:12.359Z,64.41
2022-09-11T23:29:39.204Z,64.44
2022-09-11T23:33:06.435Z,64.38
2022-09-11T23:36:34.618Z,64.42
2022-09-11T23:40:01.979Z,64.52
2022-09-11T23:43:29.373Z,64.65
2022-09-11T23:46:56.392Z,64.58
2022-09-11T23:50:26.296Z,64.59
2022-09-11T23:53:53.596Z,64.64
2022-09-11T23:57:20.342Z,64.77
